sensor_id;sensor_type;location;lat;lon;timestamp;pressure;altitude;pressure_sealevel;temperature;humidity
10720;BME280;5411;58.386;15.560;2023-04-25T00:02:18;98950.00;;;7.42;100.00
10720;BME280;5411;58.386;15.560;2023-04-25T00:04:46;98941.81;;;7.43;100.00
10720;BME280;5411;58.386;15.560;2023-04-25T00:07:24;98935.06;;;7.41;100.00
10720;BME280;5411;58.386;15.560;2023-04-25T00:09:53;98940.63;;;7.39;100.00
10720;BME280;5411;58.386;15.560;2023-04-25T00:12:21;98938.59;;;7.35;100.00
10720;BME280;5411;58.386;15.560;2023-04-25T00:14:51;98934.09;;;7.35;100.00
10720;BME280;5411;58.386;15.560;2023-04-25T00:17:19;98934.91;;;7.36;100.00
10720;BME280;5411;58.386;15.560;2023-04-25T00:19:48;98933.06;;;7.36;100.00
10720;BME280;5411;58.386;15.560;2023-04-25T00:22:17;98929.16;;;7.39;100.00
10720;BME280;5411;58.386;15.560;2023-04-25T00:24:46;98931.59;;;7.40;100.00
10720;BME280;5411;58.386;15.560;2023-04-25T00:27:16;98932.41;;;7.41;100.00
10720;BME280;5411;58.386;15.560;2023-04-25T00:29:45;98930.63;;;7.35;100.00
10720;BME280;5411;58.386;15.560;2023-04-25T00:32:13;98930.81;;;7.33;100.00
10720;BME280;5411;58.386;15.560;2023-04-25T00:34:42;98924.53;;;7.28;100.00
10720;BME280;5411;58.386;15.560;2023-04-25T00:37:10;98934.16;;;7.29;100.00
10720;BME280;5411;58.386;15.560;2023-04-25T00:39:40;98944.19;;;7.27;100.00
10720;BME280;5411;58.386;15.560;2023-04-25T00:42:11;98941.31;;;7.28;100.00
10720;BME280;5411;58.386;15.560;2023-04-25T00:44:39;98940.50;;;7.28;100.00
10720;BME280;5411;58.386;15.560;2023-04-25T00:47:10;98938.47;;;7.23;100.00
10720;BME280;5411;58.386;15.560;2023-04-25T00:49:39;98940.94;;;7.25;100.00
10720;BME280;5411;58.386;15.560;2023-04-25T00:52:07;98931.75;;;7.21;100.00
10720;BME280;5411;58.386;15.560;2023-04-25T00:54:36;98927.53;;;7.13;100.00
10720;BME280;5411;58.386;15.560;2023-04-25T00:57:04;98931.59;;;7.15;100.00
10720;BME280;5411;58.386;15.560;2023-04-25T00:59:34;98913.63;;;7.11;100.00
10720;BME280;5411;58.386;15.560;2023-04-25T01:02:04;98908.19;;;6.99;100.00
10720;BME280;5411;58.386;15.560;2023-04-25T01:04:32;98901.88;;;6.94;100.00
10720;BME280;5411;58.386;15.560;2023-04-25T01:07:04;98909.28;;;6.92;100.00
10720;BME280;5411;58.386;15.560;2023-04-25T01:09:37;98911.94;;;6.92;100.00
10720;BME280;5411;58.386;15.560;2023-04-25T01:12:20;98918.84;;;6.93;100.00
10720;BME280;5411;58.386;15.560;2023-04-25T01:14:53;98916.81;;;6.95;100.00
10720;BME280;5411;58.386;15.560;2023-04-25T01:17:21;98917.63;;;6.95;100.00
10720;BME280;5411;58.386;15.560;2023-04-25T01:19:50;98915.97;;;6.94;100.00
10720;BME280;5411;58.386;15.560;2023-04-25T01:22:20;98916.59;;;6.96;100.00
10720;BME280;5411;58.386;15.560;2023-04-25T01:24:49;98917.63;;;6.95;100.00
10720;BME280;5411;58.386;15.560;2023-04-25T01:27:18;98917.63;;;6.95;100.00
10720;BME280;5411;58.386;15.560;2023-04-25T01:29:47;98918.66;;;6.94;100.00
10720;BME280;5411;58.386;15.560;2023-04-25T01:32:16;98910.88;;;6.93;100.00
10720;BME280;5411;58.386;15.560;2023-04-25T01:34:45;98908.63;;;6.96;100.00
10720;BME280;5411;58.386;15.560;2023-04-25T01:37:13;98913.31;;;6.94;100.00
10720;BME280;5411;58.386;15.560;2023-04-25T01:39:44;98907.78;;;6.96;100.00
10720;BME280;5411;58.386;15.560;2023-04-25T01:42:14;98900.47;;;6.91;100.00
10720;BME280;5411;58.386;15.560;2023-04-25T01:44:43;98891.91;;;6.89;100.00
10720;BME280;5411;58.386;15.560;2023-04-25T01:47:12;98898.47;;;6.87;100.00
10720;BME280;5411;58.386;15.560;2023-04-25T01:49:40;98879.47;;;6.83;100.00
10720;BME280;5411;58.386;15.560;2023-04-25T01:52:09;98878.84;;;6.81;100.00
10720;BME280;5411;58.386;15.560;2023-04-25T01:54:37;98879.88;;;6.80;100.00
10720;BME280;5411;58.386;15.560;2023-04-25T01:57:13;98877.84;;;6.82;100.00
10720;BME280;5411;58.386;15.560;2023-04-25T01:59:43;98869.03;;;6.82;100.00
10720;BME280;5411;58.386;15.560;2023-04-25T02:02:11;98861.28;;;6.80;100.00
10720;BME280;5411;58.386;15.560;2023-04-25T02:04:40;98873.53;;;6.81;100.00
10720;BME280;5411;58.386;15.560;2023-04-25T02:07:10;98884.16;;;6.81;100.00
10720;BME280;5411;58.386;15.560;2023-04-25T02:09:38;98877.84;;;6.82;100.00
10720;BME280;5411;58.386;15.560;2023-04-25T02:12:08;98861.28;;;6.80;100.00
10720;BME280;5411;58.386;15.560;2023-04-25T02:14:37;98873.13;;;6.84;100.00
10720;BME280;5411;58.386;15.560;2023-04-25T02:17:06;98876.81;;;6.83;100.00
10720;BME280;5411;58.386;15.560;2023-04-25T02:19:35;98869.84;;;6.82;100.00
10720;BME280;5411;58.386;15.560;2023-04-25T02:22:03;98873.53;;;6.81;100.00
10720;BME280;5411;58.386;15.560;2023-04-25T02:24:32;98872.72;;;6.80;100.00
10720;BME280;5411;58.386;15.560;2023-04-25T02:27:01;98865.78;;;6.79;100.00
10720;BME280;5411;58.386;15.560;2023-04-25T02:29:31;98857.22;;;6.77;100.00
10720;BME280;5411;58.386;15.560;2023-04-25T02:32:02;98865.34;;;6.83;100.00
10720;BME280;5411;58.386;15.560;2023-04-25T02:34:30;98859.81;;;6.84;100.00
10720;BME280;5411;58.386;15.560;2023-04-25T02:36:59;98866.13;;;6.90;100.00
10720;BME280;5411;58.386;15.560;2023-04-25T02:39:29;98851.59;;;6.92;100.00
10720;BME280;5411;58.386;15.560;2023-04-25T02:41:57;98851.59;;;6.92;100.00
10720;BME280;5411;58.386;15.560;2023-04-25T02:44:25;98847.88;;;6.93;100.00
10720;BME280;5411;58.386;15.560;2023-04-25T02:46:54;98845.47;;;6.92;100.00
10720;BME280;5411;58.386;15.560;2023-04-25T02:49:24;98838.53;;;6.91;100.00
10720;BME280;5411;58.386;15.560;2023-04-25T02:51:52;98826.25;;;6.90;100.00
10720;BME280;5411;58.386;15.560;2023-04-25T02:54:20;98831.19;;;6.86;100.00
10720;BME280;5411;58.386;15.560;2023-04-25T02:56:49;98826.69;;;6.87;100.00
10720;BME280;5411;58.386;15.560;2023-04-25T02:59:17;98834.66;;;6.87;100.00
10720;BME280;5411;58.386;15.560;2023-04-25T03:01:46;98829.94;;;6.89;100.00
10720;BME280;5411;58.386;15.560;2023-04-25T03:04:14;98832.81;;;6.87;100.00
10720;BME280;5411;58.386;15.560;2023-04-25T03:06:43;98824.25;;;6.85;100.00
10720;BME280;5411;58.386;15.560;2023-04-25T03:09:12;98813.22;;;6.82;100.00
10720;BME280;5411;58.386;15.560;2023-04-25T03:11:40;98809.81;;;6.74;100.00
10720;BME280;5411;58.386;15.560;2023-04-25T03:14:08;98810.66;;;6.68;100.00
10720;BME280;5411;58.386;15.560;2023-04-25T03:16:39;98815.22;;;6.61;100.00
10720;BME280;5411;58.386;15.560;2023-04-25T03:19:08;98814.03;;;6.57;100.00
10720;BME280;5411;58.386;15.560;2023-04-25T03:21:38;98818.94;;;6.54;100.00
10720;BME280;5411;58.386;15.560;2023-04-25T03:24:09;98833.44;;;6.58;100.00
10720;BME280;5411;58.386;15.560;2023-04-25T03:26:38;98837.34;;;6.55;100.00
10720;BME280;5411;58.386;15.560;2023-04-25T03:29:07;98835.69;;;6.61;100.00
10720;BME280;5411;58.386;15.560;2023-04-25T03:31:38;98839.34;;;6.60;100.00
10720;BME280;5411;58.386;15.560;2023-04-25T03:34:07;98827.91;;;6.59;100.00
10720;BME280;5411;58.386;15.560;2023-04-25T03:36:35;98829.94;;;6.64;100.00
10720;BME280;5411;58.386;15.560;2023-04-25T03:39:09;98819.13;;;6.59;100.00
10720;BME280;5411;58.386;15.560;2023-04-25T03:41:38;98826.25;;;6.65;100.00
10720;BME280;5411;58.386;15.560;2023-04-25T03:44:06;98817.88;;;6.61;100.00
10720;BME280;5411;58.386;15.560;2023-04-25T03:46:34;98809.31;;;6.59;100.00
10720;BME280;5411;58.386;15.560;2023-04-25T03:49:03;98812.19;;;6.58;100.00
10720;BME280;5411;58.386;15.560;2023-04-25T03:51:31;98803.59;;;6.56;100.00
10720;BME280;5411;58.386;15.560;2023-04-25T03:53:59;98793.66;;;6.51;100.00
10720;BME280;5411;58.386;15.560;2023-04-25T03:56:29;98803.00;;;6.54;100.00
10720;BME280;5411;58.386;15.560;2023-04-25T03:58:58;98805.09;;;6.52;100.00
10720;BME280;5411;58.386;15.560;2023-04-25T04:01:26;98802.47;;;6.45;100.00
10720;BME280;5411;58.386;15.560;2023-04-25T04:03:56;98816.34;;;6.47;100.00
10720;BME280;5411;58.386;15.560;2023-04-25T04:06:25;98816.56;;;6.46;100.00
10720;BME280;5411;58.386;15.560;2023-04-25T04:08:53;98819.81;;;6.48;100.00
10720;BME280;5411;58.386;15.560;2023-04-25T04:11:22;98815.31;;;6.48;100.00
10720;BME280;5411;58.386;15.560;2023-04-25T04:13:52;98811.25;;;6.46;100.00
10720;BME280;5411;58.386;15.560;2023-04-25T04:16:23;98811.88;;;6.41;100.00
10720;BME280;5411;58.386;15.560;2023-04-25T04:18:51;98819.28;;;6.39;100.00
10720;BME280;5411;58.386;15.560;2023-04-25T04:21:20;98826.63;;;6.37;100.00
10720;BME280;5411;58.386;15.560;2023-04-25T04:23:48;98830.09;;;6.37;100.00
10720;BME280;5411;58.386;15.560;2023-04-25T04:26:18;98814.00;;;6.32;100.00
10720;BME280;5411;58.386;15.560;2023-04-25T04:28:50;98812.34;;;6.31;100.00
10720;BME280;5411;58.386;15.560;2023-04-25T04:31:20;98820.50;;;6.36;100.00
10720;BME280;5411;58.386;15.560;2023-04-25T04:33:48;98825.38;;;6.39;100.00
10720;BME280;5411;58.386;15.560;2023-04-25T04:36:18;98826.16;;;6.47;100.00
10720;BME280;5411;58.386;15.560;2023-04-25T04:38:49;98821.44;;;6.49;100.00
10720;BME280;5411;58.386;15.560;2023-04-25T04:41:19;98817.78;;;6.50;100.00
10720;BME280;5411;58.386;15.560;2023-04-25T04:43:47;98823.91;;;6.50;100.00
10720;BME280;5411;58.386;15.560;2023-04-25T04:46:20;98825.53;;;6.51;100.00
10720;BME280;5411;58.386;15.560;2023-04-25T04:48:48;98815.94;;;6.50;100.00
10720;BME280;5411;58.386;15.560;2023-04-25T04:51:17;98822.38;;;6.61;100.00
10720;BME280;5411;58.386;15.560;2023-04-25T04:53:45;98820.94;;;6.65;100.00
10720;BME280;5411;58.386;15.560;2023-04-25T04:56:17;98826.00;;;6.66;100.00
10720;BME280;5411;58.386;15.560;2023-04-25T04:58:47;98822.19;;;6.62;100.00
10720;BME280;5411;58.386;15.560;2023-04-25T05:01:17;98812.38;;;6.63;100.00
10720;BME280;5411;58.386;15.560;2023-04-25T05:03:47;98822.53;;;6.66;100.00
10720;BME280;5411;58.386;15.560;2023-04-25T05:06:17;98808.22;;;6.67;100.00
10720;BME280;5411;58.386;15.560;2023-04-25T05:08:46;98807.59;;;6.71;100.00
10720;BME280;5411;58.386;15.560;2023-04-25T05:11:14;98812.88;;;6.78;100.00
10720;BME280;5411;58.386;15.560;2023-04-25T05:13:43;98809.31;;;6.84;100.00
10720;BME280;5411;58.386;15.560;2023-04-25T05:16:12;98807.25;;;6.86;100.00
10720;BME280;5411;58.386;15.560;2023-04-25T05:18:47;98801.75;;;6.88;100.00
10720;BME280;5411;58.386;15.560;2023-04-25T05:21:15;98803.75;;;6.92;100.00
10720;BME280;5411;58.386;15.560;2023-04-25T05:23:44;98813.28;;;7.00;100.00
10720;BME280;5411;58.386;15.560;2023-04-25T05:26:12;98810.56;;;7.06;100.00
10720;BME280;5411;58.386;15.560;2023-04-25T05:28:41;98815.63;;;7.14;100.00
10720;BME280;5411;58.386;15.560;2023-04-25T05:31:10;98817.38;;;7.21;100.00
10720;BME280;5411;58.386;15.560;2023-04-25T05:33:38;98814.88;;;7.26;100.00
10720;BME280;5411;58.386;15.560;2023-04-25T05:36:09;98815.88;;;7.31;100.00
10720;BME280;5411;58.386;15.560;2023-04-25T05:38:38;98821.75;;;7.33;100.00
10720;BME280;5411;58.386;15.560;2023-04-25T05:41:06;98816.00;;;7.36;100.00
10720;BME280;5411;58.386;15.560;2023-04-25T05:43:35;98810.03;;;7.41;100.00
10720;BME280;5411;58.386;15.560;2023-04-25T05:46:03;98817.50;;;7.50;100.00
10720;BME280;5411;58.386;15.560;2023-04-25T05:48:34;98820.44;;;7.61;100.00
10720;BME280;5411;58.386;15.560;2023-04-25T05:51:02;98814.41;;;7.54;100.00
10720;BME280;5411;58.386;15.560;2023-04-25T05:53:32;98814.19;;;7.55;100.00
10720;BME280;5411;58.386;15.560;2023-04-25T05:56:00;98817.44;;;7.57;100.00
10720;BME280;5411;58.386;15.560;2023-04-25T05:58:29;98819.63;;;7.60;100.00
10720;BME280;5411;58.386;15.560;2023-04-25T06:00:57;98823.28;;;7.66;100.00
10720;BME280;5411;58.386;15.560;2023-04-25T06:03:26;98824.00;;;7.73;100.00
10720;BME280;5411;58.386;15.560;2023-04-25T06:05:54;98812.78;;;7.71;100.00
10720;BME280;5411;58.386;15.560;2023-04-25T06:08:23;98808.72;;;7.68;100.00
10720;BME280;5411;58.386;15.560;2023-04-25T06:10:53;98806.53;;;7.77;100.00
10720;BME280;5411;58.386;15.560;2023-04-25T06:13:22;98799.47;;;7.71;100.00
10720;BME280;5411;58.386;15.560;2023-04-25T06:15:50;98815.19;;;7.72;100.00
10720;BME280;5411;58.386;15.560;2023-04-25T06:18:18;98806.97;;;7.74;100.00
10720;BME280;5411;58.386;15.560;2023-04-25T06:20:48;98802.94;;;7.71;100.00
10720;BME280;5411;58.386;15.560;2023-04-25T06:23:17;98796.00;;;7.70;100.00
10720;BME280;5411;58.386;15.560;2023-04-25T06:25:45;98810.25;;;7.76;100.00
10720;BME280;5411;58.386;15.560;2023-04-25T06:28:15;98805.13;;;7.74;100.00
10720;BME280;5411;58.386;15.560;2023-04-25T06:30:43;98802.19;;;7.82;100.00
10720;BME280;5411;58.386;15.560;2023-04-25T06:33:11;98799.00;;;7.92;100.00
10720;BME280;5411;58.386;15.560;2023-04-25T06:35:40;98805.41;;;8.03;100.00
10720;BME280;5411;58.386;15.560;2023-04-25T06:38:09;98801.84;;;8.09;100.00
10720;BME280;5411;58.386;15.560;2023-04-25T06:40:38;98802.88;;;8.08;100.00
10720;BME280;5411;58.386;15.560;2023-04-25T06:43:06;98802.56;;;8.16;100.00
10720;BME280;5411;58.386;15.560;2023-04-25T06:45:36;98804.13;;;8.23;100.00
10720;BME280;5411;58.386;15.560;2023-04-25T06:48:05;98802.81;;;8.26;100.00
10720;BME280;5411;58.386;15.560;2023-04-25T06:50:34;98797.88;;;8.30;100.00
10720;BME280;5411;58.386;15.560;2023-04-25T06:53:03;98800.13;;;8.33;100.00
10720;BME280;5411;58.386;15.560;2023-04-25T06:55:31;98799.31;;;8.32;100.00
10720;BME280;5411;58.386;15.560;2023-04-25T06:57:59;98809.63;;;8.40;100.00
10720;BME280;5411;58.386;15.560;2023-04-25T07:00:29;98808.16;;;8.44;100.00
10720;BME280;5411;58.386;15.560;2023-04-25T07:03:00;98813.84;;;8.48;100.00
10720;BME280;5411;58.386;15.560;2023-04-25T07:05:31;98819.75;;;8.50;100.00
10720;BME280;5411;58.386;15.560;2023-04-25T07:07:59;98800.41;;;8.54;100.00
10720;BME280;5411;58.386;15.560;2023-04-25T07:10:28;98798.91;;;8.58;100.00
10720;BME280;5411;58.386;15.560;2023-04-25T07:12:56;98804.00;;;8.60;100.00
10720;BME280;5411;58.386;15.560;2023-04-25T07:15:24;98807.59;;;8.66;100.00
10720;BME280;5411;58.386;15.560;2023-04-25T07:17:53;98808.56;;;8.71;100.00
10720;BME280;5411;58.386;15.560;2023-04-25T07:20:23;98811.13;;;8.78;100.00
10720;BME280;5411;58.386;15.560;2023-04-25T07:22:51;98813.47;;;8.86;100.00
10720;BME280;5411;58.386;15.560;2023-04-25T07:25:20;98801.63;;;8.93;100.00
10720;BME280;5411;58.386;15.560;2023-04-25T07:27:48;98798.19;;;9.05;100.00
10720;BME280;5411;58.386;15.560;2023-04-25T07:30:16;98790.84;;;9.23;100.00
10720;BME280;5411;58.386;15.560;2023-04-25T07:32:45;98785.63;;;9.40;100.00
10720;BME280;5411;58.386;15.560;2023-04-25T07:35:14;98783.59;;;9.59;100.00
10720;BME280;5411;58.386;15.560;2023-04-25T07:37:44;98783.91;;;9.74;100.00
10720;BME280;5411;58.386;15.560;2023-04-25T07:40:13;98782.38;;;9.90;100.00
10720;BME280;5411;58.386;15.560;2023-04-25T07:42:43;98791.25;;;10.07;100.00
10720;BME280;5411;58.386;15.560;2023-04-25T07:45:11;98792.72;;;10.15;100.00
10720;BME280;5411;58.386;15.560;2023-04-25T07:47:43;98795.06;;;10.23;100.00
10720;BME280;5411;58.386;15.560;2023-04-25T07:50:12;98790.59;;;10.28;100.00
10720;BME280;5411;58.386;15.560;2023-04-25T07:52:40;98799.38;;;10.41;100.00
10720;BME280;5411;58.386;15.560;2023-04-25T07:55:10;98794.47;;;10.49;100.00
10720;BME280;5411;58.386;15.560;2023-04-25T07:57:38;98786.69;;;10.48;100.00
10720;BME280;5411;58.386;15.560;2023-04-25T08:00:09;98814.88;;;10.55;100.00
10720;BME280;5411;58.386;15.560;2023-04-25T08:02:38;98807.78;;;10.61;100.00
10720;BME280;5411;58.386;15.560;2023-04-25T08:05:07;98812.44;;;10.54;100.00
10720;BME280;5411;58.386;15.560;2023-04-25T08:07:39;98819.13;;;10.51;100.00
10720;BME280;5411;58.386;15.560;2023-04-25T08:10:09;98812.53;;;10.59;100.00
10720;BME280;5411;58.386;15.560;2023-04-25T08:12:38;98815.16;;;10.70;100.00
10720;BME280;5411;58.386;15.560;2023-04-25T08:15:07;98816.38;;;10.80;100.00
10720;BME280;5411;58.386;15.560;2023-04-25T08:17:36;98812.16;;;10.84;100.00
10720;BME280;5411;58.386;15.560;2023-04-25T08:20:05;98827.25;;;10.90;100.00
10720;BME280;5411;58.386;15.560;2023-04-25T08:22:35;98828.88;;;10.91;100.00
10720;BME280;5411;58.386;15.560;2023-04-25T08:25:05;98831.22;;;10.87;100.00
10720;BME280;5411;58.386;15.560;2023-04-25T08:27:40;98831.31;;;10.76;100.00
10720;BME280;5411;58.386;15.560;2023-04-25T08:30:09;98828.94;;;10.62;100.00
10720;BME280;5411;58.386;15.560;2023-04-25T08:32:39;98819.19;;;10.56;100.00
10720;BME280;5411;58.386;15.560;2023-04-25T08:35:08;98827.38;;;10.50;100.00
10720;BME280;5411;58.386;15.560;2023-04-25T08:37:38;98833.78;;;10.49;100.00
10720;BME280;5411;58.386;15.560;2023-04-25T08:40:11;98823.31;;;10.47;100.00
10720;BME280;5411;58.386;15.560;2023-04-25T08:42:42;98827.84;;;10.47;100.00
10720;BME280;5411;58.386;15.560;2023-04-25T08:45:10;98819.66;;;10.53;100.00
10720;BME280;5411;58.386;15.560;2023-04-25T08:47:39;98830.47;;;10.58;100.00
10720;BME280;5411;58.386;15.560;2023-04-25T08:50:08;98828.53;;;10.70;100.00
10720;BME280;5411;58.386;15.560;2023-04-25T08:52:44;98822.88;;;10.84;100.00
10720;BME280;5411;58.386;15.560;2023-04-25T08:55:13;98826.19;;;11.07;100.00
10720;BME280;5411;58.386;15.560;2023-04-25T08:57:44;98830.25;;;11.27;100.00
10720;BME280;5411;58.386;15.560;2023-04-25T09:00:13;98819.09;;;11.52;100.00
10720;BME280;5411;58.386;15.560;2023-04-25T09:02:42;98821.66;;;11.63;100.00
10720;BME280;5411;58.386;15.560;2023-04-25T09:05:13;98831.22;;;11.76;100.00
10720;BME280;5411;58.386;15.560;2023-04-25T09:07:41;98832.34;;;11.80;100.00
10720;BME280;5411;58.386;15.560;2023-04-25T09:10:10;98831.38;;;11.69;100.00
10720;BME280;5411;58.386;15.560;2023-04-25T09:12:38;98818.91;;;11.58;100.00
10720;BME280;5411;58.386;15.560;2023-04-25T09:15:10;98830.69;;;11.57;100.00
10720;BME280;5411;58.386;15.560;2023-04-25T09:17:55;98834.00;;;11.48;100.00
10720;BME280;5411;58.386;15.560;2023-04-25T09:20:24;98835.00;;;11.41;100.00
10720;BME280;5411;58.386;15.560;2023-04-25T09:23:03;98836.88;;;11.41;100.00
10720;BME280;5411;58.386;15.560;2023-04-25T09:25:35;98839.22;;;11.37;100.00
10720;BME280;5411;58.386;15.560;2023-04-25T09:28:06;98839.00;;;11.39;100.00
10720;BME280;5411;58.386;15.560;2023-04-25T09:30:36;98847.09;;;11.44;100.00
10720;BME280;5411;58.386;15.560;2023-04-25T09:33:06;98844.16;;;11.46;100.00
10720;BME280;5411;58.386;15.560;2023-04-25T09:35:36;98838.03;;;11.45;100.00
10720;BME280;5411;58.386;15.560;2023-04-25T09:38:10;98850.03;;;11.42;100.00
10720;BME280;5411;58.386;15.560;2023-04-25T09:40:40;98834.25;;;11.46;100.00
10720;BME280;5411;58.386;15.560;2023-04-25T09:43:19;98842.69;;;11.55;100.00
10720;BME280;5411;58.386;15.560;2023-04-25T09:45:51;98832.94;;;11.65;100.00
10720;BME280;5411;58.386;15.560;2023-04-25T09:48:25;98846.81;;;11.79;100.00
10720;BME280;5411;58.386;15.560;2023-04-25T09:51:09;98841.25;;;11.86;100.00
10720;BME280;5411;58.386;15.560;2023-04-25T09:53:41;98848.69;;;12.00;100.00
10720;BME280;5411;58.386;15.560;2023-04-25T09:56:11;98843.00;;;12.19;100.00
10720;BME280;5411;58.386;15.560;2023-04-25T09:58:40;98842.72;;;12.42;100.00
10720;BME280;5411;58.386;15.560;2023-04-25T10:01:10;98848.19;;;12.52;100.00
10720;BME280;5411;58.386;15.560;2023-04-25T10:03:40;98848.31;;;12.62;100.00
10720;BME280;5411;58.386;15.560;2023-04-25T10:06:12;98846.72;;;12.66;100.00
10720;BME280;5411;58.386;15.560;2023-04-25T10:08:43;98839.59;;;12.77;100.00
10720;BME280;5411;58.386;15.560;2023-04-25T10:11:14;98843.91;;;12.78;100.00
10720;BME280;5411;58.386;15.560;2023-04-25T10:13:42;98844.75;;;12.83;100.00
10720;BME280;5411;58.386;15.560;2023-04-25T10:16:12;98838.81;;;12.81;100.00
10720;BME280;5411;58.386;15.560;2023-04-25T10:18:43;98845.41;;;12.69;100.00
10720;BME280;5411;58.386;15.560;2023-04-25T10:21:12;98839.41;;;12.57;100.00
10720;BME280;5411;58.386;15.560;2023-04-25T10:23:43;98848.09;;;12.42;100.00
10720;BME280;5411;58.386;15.560;2023-04-25T10:26:12;98846.19;;;12.16;100.00
10720;BME280;5411;58.386;15.560;2023-04-25T10:28:57;98841.91;;;11.93;100.00
10720;BME280;5411;58.386;15.560;2023-04-25T10:31:29;98847.75;;;11.73;100.00
10720;BME280;5411;58.386;15.560;2023-04-25T10:33:59;98846.00;;;11.62;100.00
10720;BME280;5411;58.386;15.560;2023-04-25T10:36:51;98846.44;;;11.54;100.00
10720;BME280;5411;58.386;15.560;2023-04-25T10:39:24;98850.66;;;11.50;100.00
10720;BME280;5411;58.386;15.560;2023-04-25T10:41:55;98846.34;;;11.49;100.00
10720;BME280;5411;58.386;15.560;2023-04-25T10:44:26;98854.88;;;11.46;100.00
10720;BME280;5411;58.386;15.560;2023-04-25T10:46:57;98845.72;;;11.41;100.00
10720;BME280;5411;58.386;15.560;2023-04-25T10:49:31;98847.50;;;11.36;100.00
10720;BME280;5411;58.386;15.560;2023-04-25T10:52:24;98847.75;;;11.34;100.00
10720;BME280;5411;58.386;15.560;2023-04-25T10:54:54;98840.28;;;11.36;100.00
10720;BME280;5411;58.386;15.560;2023-04-25T10:57:30;98840.03;;;11.55;100.00
10720;BME280;5411;58.386;15.560;2023-04-25T11:00:14;98846.00;;;11.78;100.00
10720;BME280;5411;58.386;15.560;2023-04-25T11:02:47;98833.63;;;11.94;100.00
10720;BME280;5411;58.386;15.560;2023-04-25T11:05:20;98836.97;;;12.06;100.00
10720;BME280;5411;58.386;15.560;2023-04-25T11:07:51;98842.66;;;12.10;100.00
10720;BME280;5411;58.386;15.560;2023-04-25T11:10:33;98834.91;;;12.13;100.00
10720;BME280;5411;58.386;15.560;2023-04-25T11:13:03;98838.22;;;12.21;100.00
10720;BME280;5411;58.386;15.560;2023-04-25T11:15:32;98835.38;;;12.32;100.00
10720;BME280;5411;58.386;15.560;2023-04-25T11:18:04;98841.09;;;12.41;100.00
10720;BME280;5411;58.386;15.560;2023-04-25T11:20:37;98843.28;;;12.44;100.00
10720;BME280;5411;58.386;15.560;2023-04-25T11:23:19;98843.59;;;12.47;100.00
10720;BME280;5411;58.386;15.560;2023-04-25T11:25:49;98851.41;;;12.49;100.00
10720;BME280;5411;58.386;15.560;2023-04-25T11:28:21;98842.78;;;12.47;100.00
10720;BME280;5411;58.386;15.560;2023-04-25T11:30:52;98854.78;;;12.66;100.00
10720;BME280;5411;58.386;15.560;2023-04-25T11:33:24;98847.19;;;12.85;100.00
10720;BME280;5411;58.386;15.560;2023-04-25T11:35:54;98848.72;;;13.08;100.00
10720;BME280;5411;58.386;15.560;2023-04-25T11:38:24;98854.06;;;13.35;100.00
10720;BME280;5411;58.386;15.560;2023-04-25T11:40:55;98855.84;;;13.61;100.00
10720;BME280;5411;58.386;15.560;2023-04-25T11:43:23;98854.22;;;13.60;100.00
10720;BME280;5411;58.386;15.560;2023-04-25T11:45:52;98850.72;;;13.60;100.00
10720;BME280;5411;58.386;15.560;2023-04-25T11:48:23;98851.00;;;13.58;100.00
10720;BME280;5411;58.386;15.560;2023-04-25T11:50:54;98862.84;;;13.62;100.00
10720;BME280;5411;58.386;15.560;2023-04-25T11:53:22;98854.25;;;13.65;100.00
10720;BME280;5411;58.386;15.560;2023-04-25T11:55:51;98855.63;;;13.68;100.00
10720;BME280;5411;58.386;15.560;2023-04-25T11:58:23;98856.19;;;13.75;100.00
10720;BME280;5411;58.386;15.560;2023-04-25T12:00:51;98846.28;;;13.80;100.00
10720;BME280;5411;58.386;15.560;2023-04-25T12:03:21;98845.22;;;13.86;100.00
10720;BME280;5411;58.386;15.560;2023-04-25T12:06:02;98845.00;;;13.98;100.00
10720;BME280;5411;58.386;15.560;2023-04-25T12:08:32;98850.38;;;13.98;99.53
10720;BME280;5411;58.386;15.560;2023-04-25T12:11:00;98854.38;;;13.90;97.80
10720;BME280;5411;58.386;15.560;2023-04-25T12:13:31;98852.47;;;13.86;97.54
10720;BME280;5411;58.386;15.560;2023-04-25T12:16:00;98861.84;;;13.78;97.81
10720;BME280;5411;58.386;15.560;2023-04-25T12:18:28;98870.47;;;13.80;99.63
10720;BME280;5411;58.386;15.560;2023-04-25T12:21:00;98858.41;;;13.83;98.66
10720;BME280;5411;58.386;15.560;2023-04-25T12:23:29;98862.16;;;13.82;97.92
10720;BME280;5411;58.386;15.560;2023-04-25T12:25:57;98862.66;;;13.79;98.13
10720;BME280;5411;58.386;15.560;2023-04-25T12:28:26;98855.16;;;13.81;100.00
10720;BME280;5411;58.386;15.560;2023-04-25T12:30:59;98857.84;;;13.86;100.00
10720;BME280;5411;58.386;15.560;2023-04-25T12:33:30;98857.34;;;13.89;99.97
10720;BME280;5411;58.386;15.560;2023-04-25T12:36:00;98853.59;;;13.90;99.53
10720;BME280;5411;58.386;15.560;2023-04-25T12:38:36;98858.75;;;13.97;100.00
10720;BME280;5411;58.386;15.560;2023-04-25T12:41:05;98855.53;;;14.05;100.00
10720;BME280;5411;58.386;15.560;2023-04-25T12:43:34;98857.44;;;14.14;100.00
10720;BME280;5411;58.386;15.560;2023-04-25T12:46:08;98852.13;;;14.30;98.13
10720;BME280;5411;58.386;15.560;2023-04-25T12:48:36;98845.16;;;14.39;97.41
10720;BME280;5411;58.386;15.560;2023-04-25T12:51:06;98846.03;;;14.49;96.29
10720;BME280;5411;58.386;15.560;2023-04-25T12:53:34;98850.63;;;14.59;96.12
10720;BME280;5411;58.386;15.560;2023-04-25T12:56:05;98851.19;;;14.61;97.24
10720;BME280;5411;58.386;15.560;2023-04-25T12:58:33;98851.72;;;14.63;94.46
10720;BME280;5411;58.386;15.560;2023-04-25T13:01:04;98841.72;;;14.53;93.12
10720;BME280;5411;58.386;15.560;2023-04-25T13:03:32;98853.03;;;14.50;92.66
10720;BME280;5411;58.386;15.560;2023-04-25T13:06:21;98846.81;;;14.40;92.81
10720;BME280;5411;58.386;15.560;2023-04-25T13:08:51;98842.69;;;14.27;92.90
10720;BME280;5411;58.386;15.560;2023-04-25T13:11:20;98850.00;;;14.32;94.00
10720;BME280;5411;58.386;15.560;2023-04-25T13:13:48;98851.03;;;14.25;93.52